createdAt,value
2022-08-01T00:00:13.238Z,2.30
2022-08-01T00:01:13.230Z,2.30
2022-08-01T00:02:13.242Z,1.90
2022-08-01T00:03:13.212Z,2.10
2022-08-01T00:04:13.194Z,2.30
2022-08-01T00:05:13.195Z,2.00
2022-08-01T00:06:13.152Z,2.20
2022-08-01T00:07:13.163Z,1.80
2022-08-01T00:08:13.143Z,2.40
2022-08-01T00:09:23.641Z,1.90
2022-08-01T00:10:14.113Z,2.30
2022-08-01T00:11:13.109Z,2.10
2022-08-01T00:12:13.144Z,2.30
2022-08-01T00:13:13.075Z,2.20
2022-08-01T00:14:13.054Z,2.10
2022-08-01T00:15:13.064Z,2.00
2022-08-01T00:16:13.028Z,2.40
2022-08-01T00:17:13.025Z,2.10
2022-08-01T00:18:13.005Z,2.40
2022-08-01T00:19:13.004Z,2.30
2022-08-01T00:20:12.998Z,2.10
2022-08-01T00:21:12.976Z,2.30
2022-08-01T00:22:12.959Z,2.10
2022-08-01T00:23:12.955Z,2.50
2022-08-01T00:24:14.353Z,2.70
2022-08-01T00:25:12.936Z,2.40
2022-08-01T00:26:12.917Z,1.80
2022-08-01T00:27:12.894Z,2.10
2022-08-01T00:28:12.877Z,2.10
2022-08-01T00:30:09.583Z,2.20
2022-08-01T00:30:15.078Z,2.50
2022-08-01T00:31:12.835Z,2.40
2022-08-01T00:32:12.819Z,2.50
2022-08-01T00:33:12.819Z,2.40
2022-08-01T00:34:12.821Z,2.00
2022-08-01T00:35:12.809Z,2.00
2022-08-01T00:36:12.780Z,2.20
2022-08-01T00:37:14.090Z,2.30
2022-08-01T00:38:12.750Z,2.30
2022-08-01T00:39:12.729Z,2.50
2022-08-01T00:40:12.740Z,2.00
2022-08-01T00:41:12.711Z,2.20
2022-08-01T00:42:12.694Z,2.20
2022-08-01T00:43:12.701Z,2.40
2022-08-01T00:44:12.761Z,2.10
2022-08-01T00:45:12.678Z,2.30
2022-08-01T00:46:12.642Z,2.30
2022-08-01T00:47:12.640Z,2.20
2022-08-01T00:48:12.632Z,2.70
2022-08-01T00:49:12.678Z,2.60
2022-08-01T00:50:12.608Z,2.60
2022-08-01T00:51:12.572Z,2.50
2022-08-01T00:52:12.564Z,2.40
2022-08-01T00:53:18.989Z,2.30
2022-08-01T00:54:13.554Z,2.20
2022-08-01T00:55:15.068Z,2.30
2022-08-01T00:56:12.503Z,2.60
2022-08-01T00:57:12.510Z,2.30
2022-08-01T00:58:12.593Z,2.40
2022-08-01T00:59:12.495Z,2.40
2022-08-01T01:00:12.479Z,2.50
2022-08-01T01:01:12.515Z,2.30
2022-08-01T01:02:15.572Z,2.20
2022-08-01T01:03:12.434Z,2.30
2022-08-01T01:04:13.415Z,2.10
2022-08-01T01:05:12.405Z,2.50
2022-08-01T01:06:12.386Z,2.10
2022-08-01T01:07:12.386Z,2.20
2022-08-01T01:08:12.368Z,2.10
2022-08-01T01:09:12.365Z,2.60
2022-08-01T01:10:12.447Z,2.50
2022-08-01T01:11:12.326Z,2.30
2022-08-01T01:12:12.305Z,2.20
2022-08-01T01:13:12.307Z,2.60
2022-08-01T01:14:12.309Z,2.30
2022-08-01T01:15:12.286Z,2.50
2022-08-01T01:16:12.247Z,2.20
2022-08-01T01:17:12.257Z,2.70
2022-08-01T01:18:12.239Z,2.00
2022-08-01T01:19:12.247Z,2.40
2022-08-01T01:20:12.220Z,2.40
2022-08-01T01:21:12.191Z,2.40
2022-08-01T01:22:12.178Z,2.40
2022-08-01T01:23:12.179Z,2.60
2022-08-01T01:24:12.177Z,2.70
2022-08-01T01:25:12.171Z,2.70
2022-08-01T01:26:12.119Z,2.40
2022-08-01T01:27:12.127Z,2.60
2022-08-01T01:28:12.110Z,2.40
2022-08-01T01:29:12.092Z,2.00
2022-08-01T01:30:12.122Z,2.40
2022-08-01T01:31:12.080Z,2.60
2022-08-01T01:32:12.060Z,2.40
2022-08-01T01:33:12.058Z,2.80
2022-08-01T01:34:12.022Z,2.40
2022-08-01T01:35:12.030Z,2.50
2022-08-01T01:36:12.024Z,2.60
2022-08-01T01:37:12.993Z,2.60
2022-08-01T01:38:11.981Z,3.00
2022-08-01T01:39:11.964Z,2.30
2022-08-01T01:40:11.963Z,2.20
2022-08-01T01:41:11.954Z,2.40
2022-08-01T01:42:11.924Z,2.50
2022-08-01T01:43:11.964Z,2.40
2022-08-01T01:44:11.908Z,2.50
2022-08-01T01:45:11.896Z,2.60
2022-08-01T01:46:11.886Z,2.30
2022-08-01T01:47:11.877Z,2.20
2022-08-01T01:48:11.844Z,2.50
2022-08-01T01:49:11.925Z,2.60
2022-08-01T01:50:11.840Z,2.20
2022-08-01T01:51:11.816Z,2.70
2022-08-01T01:52:11.798Z,2.50
2022-08-01T01:53:15.023Z,2.60
2022-08-01T01:54:11.787Z,2.60
2022-08-01T01:55:11.777Z,2.70
2022-08-01T01:56:11.746Z,2.50
2022-08-01T01:57:11.736Z,2.20
2022-08-01T01:58:11.715Z,2.50
2022-08-01T01:59:11.717Z,2.40
2022-08-01T02:00:11.706Z,2.30
2022-08-01T02:01:14.414Z,2.70
2022-08-01T02:02:12.031Z,2.40
2022-08-01T02:03:11.661Z,2.30
2022-08-01T02:04:11.659Z,2.70
2022-08-01T02:05:11.663Z,2.30
2022-08-01T02:06:11.618Z,2.30
2022-08-01T02:07:11.610Z,2.90
2022-08-01T02:08:11.599Z,2.90
2022-08-01T02:09:11.587Z,2.60
2022-08-01T02:10:11.570Z,2.30
2022-08-01T02:11:11.560Z,2.30
2022-08-01T02:12:11.819Z,2.20
2022-08-01T02:13:11.542Z,2.40
2022-08-01T02:14:11.521Z,2.50
2022-08-01T02:15:11.511Z,2.60
2022-08-01T02:16:11.491Z,2.60
2022-08-01T02:17:11.472Z,3.00
2022-08-01T02:18:11.462Z,2.70
2022-08-01T02:19:11.454Z,2.50
2022-08-01T02:20:11.452Z,2.70
2022-08-01T02:21:11.443Z,2.40
2022-08-01T02:22:11.414Z,2.60
2022-08-01T02:23:11.414Z,2.60
2022-08-01T02:24:11.386Z,2.30
2022-08-01T02:25:11.377Z,2.70
2022-08-01T02:26:11.754Z,2.60
2022-08-01T02:27:11.355Z,2.50
2022-08-01T02:28:11.344Z,3.00
2022-08-01T02:29:11.334Z,2.40
2022-08-01T02:30:11.307Z,2.40
2022-08-01T02:31:11.316Z,2.80
2022-08-01T02:32:11.295Z,2.50
2022-08-01T02:33:15.698Z,2.50
2022-08-01T02:34:12.266Z,2.70
2022-08-01T02:35:11.247Z,2.30
2022-08-01T02:36:30.854Z,2.80
2022-08-01T02:37:12.219Z,2.70
2022-08-01T02:38:11.200Z,2.40
2022-08-01T02:39:11.213Z,2.20
2022-08-01T02:40:14.072Z,2.50
2022-08-01T02:41:11.204Z,2.40
2022-08-01T02:42:11.179Z,2.60
2022-08-01T02:43:11.147Z,3.40
2022-08-01T02:44:11.141Z,2.50
2022-08-01T02:45:11.138Z,2.40
2022-08-01T02:46:11.110Z,2.30
2022-08-01T02:47:11.099Z,2.70
2022-08-01T02:48:11.079Z,2.30
2022-08-01T02:49:11.172Z,2.30
2022-08-01T02:50:11.069Z,2.80
2022-08-01T02:51:11.166Z,2.30
2022-08-01T02:52:11.020Z,2.60
2022-08-01T02:53:11.025Z,2.50
2022-08-01T02:54:11.103Z,2.80
2022-08-01T02:55:10.994Z,2.80
2022-08-01T02:56:10.990Z,2.50
2022-08-01T02:57:14.062Z,2.60
2022-08-01T02:58:10.941Z,2.70
2022-08-01T02:59:10.944Z,2.70
2022-08-01T03:00:10.920Z,2.60
2022-08-01T03:01:10.973Z,2.40
2022-08-01T03:02:11.140Z,3.10
2022-08-01T03:03:10.893Z,2.80
2022-08-01T03:04:10.882Z,2.90
2022-08-01T03:05:10.875Z,2.80
2022-08-01T03:06:10.853Z,2.90
2022-08-01T03:07:10.872Z,2.80
2022-08-01T03:08:12.058Z,2.90
2022-08-01T03:09:10.832Z,2.80
2022-08-01T03:10:10.801Z,3.00
2022-08-01T03:11:10.785Z,2.90
2022-08-01T03:12:10.792Z,2.50
2022-08-01T03:13:10.754Z,2.60
2022-08-01T03:14:10.783Z,2.90
2022-08-01T03:15:10.736Z,2.70
2022-08-01T03:16:10.726Z,2.60
2022-08-01T03:17:10.736Z,2.80
2022-08-01T03:18:10.716Z,2.80
2022-08-01T03:19:10.688Z,2.40
2022-08-01T03:20:10.677Z,2.40
2022-08-01T03:21:10.668Z,3.00
2022-08-01T03:22:10.686Z,2.60
2022-08-01T03:23:10.629Z,2.60
2022-08-01T03:24:10.617Z,2.80
2022-08-01T03:25:10.612Z,2.90
2022-08-01T03:26:10.619Z,2.70
2022-08-01T03:27:10.589Z,3.10
2022-08-01T03:28:10.591Z,3.10
2022-08-01T03:29:10.560Z,3.40
2022-08-01T03:30:10.549Z,2.50
2022-08-01T03:31:10.533Z,3.00
2022-08-01T03:32:10.533Z,3.10
2022-08-01T03:33:10.523Z,3.20
2022-08-01T03:34:10.490Z,2.70
2022-08-01T03:35:10.489Z,2.70
2022-08-01T03:36:10.472Z,3.30
2022-08-01T03:37:10.472Z,3.00
2022-08-01T03:38:17.702Z,2.80
2022-08-01T03:39:11.448Z,3.00
2022-08-01T03:40:10.430Z,2.80
2022-08-01T03:41:10.400Z,2.70
2022-08-01T03:42:10.738Z,2.70
2022-08-01T03:43:10.386Z,2.80
2022-08-01T03:44:10.370Z,2.60
2022-08-01T03:45:10.367Z,2.80
2022-08-01T03:46:10.352Z,2.90
2022-08-01T03:47:10.345Z,2.80
2022-08-01T03:48:10.322Z,3.10
2022-08-01T03:49:10.348Z,2.60
2022-08-01T04:03:00.426Z,3.10
2022-08-01T04:04:00.405Z,3.40
2022-08-01T04:05:00.395Z,3.30
2022-08-01T04:06:00.373Z,3.10
2022-08-01T04:07:00.368Z,3.30
2022-08-01T04:08:00.363Z,3.00
2022-08-01T04:09:00.334Z,3.10
2022-08-01T04:10:00.335Z,3.40
2022-08-01T04:11:00.320Z,3.20
2022-08-01T04:12:00.301Z,3.20
2022-08-01T04:13:00.307Z,2.90
2022-08-01T04:14:00.273Z,3.10
2022-08-01T04:15:00.256Z,3.20
2022-08-01T04:16:00.240Z,2.90
2022-08-01T04:17:07.245Z,3.30
2022-08-01T04:18:01.222Z,3.00
2022-08-01T04:19:00.214Z,2.80
2022-08-01T04:20:00.207Z,3.00
2022-08-01T04:21:00.183Z,3.00
2022-08-01T04:22:00.168Z,3.40
2022-08-01T04:23:01.178Z,2.70
2022-08-01T04:24:00.144Z,2.80
2022-08-01T04:25:00.126Z,3.40
2022-08-01T04:26:00.105Z,3.00
2022-08-01T04:27:00.107Z,2.80
2022-08-01T04:28:00.115Z,3.00
2022-08-01T04:29:00.093Z,2.70
2022-08-01T04:30:00.089Z,3.10
2022-08-01T04:31:02.257Z,3.00
2022-08-01T04:32:00.052Z,2.70
2022-08-01T04:33:00.044Z,2.90
2022-08-01T04:34:00.016Z,2.80
2022-08-01T04:35:00.007Z,3.00
2022-08-01T04:36:03.687Z,2.70
2022-08-01T04:36:59.985Z,3.40
2022-08-01T04:38:00.972Z,2.70
2022-08-01T04:39:00.958Z,2.60
2022-08-01T04:39:59.939Z,2.90
2022-08-01T04:41:08.516Z,2.60
2022-08-01T04:42:00.910Z,2.70
2022-08-01T04:42:59.899Z,2.60
2022-08-01T04:43:59.893Z,3.20
2022-08-01T04:44:59.891Z,3.20
2022-08-01T04:45:59.859Z,2.90
2022-08-01T04:46:59.849Z,3.20
2022-08-01T04:47:59.819Z,2.50
2022-08-01T04:48:59.869Z,2.50
2022-08-01T04:49:59.821Z,3.00
2022-08-01T04:50:59.811Z,2.60
2022-08-01T04:51:59.772Z,2.40
2022-08-01T04:52:59.800Z,2.80
2022-08-01T04:53:59.761Z,2.70
2022-08-01T04:54:59.754Z,2.70
2022-08-01T04:55:59.721Z,2.90
2022-08-01T04:56:59.702Z,2.90
2022-08-01T04:57:59.690Z,2.70
2022-08-01T04:58:59.716Z,2.60
2022-08-01T04:59:59.672Z,2.60
2022-08-01T05:00:59.721Z,2.90
2022-08-01T05:01:59.634Z,2.60
2022-08-01T05:02:59.625Z,2.60
2022-08-01T05:03:59.625Z,2.70
2022-08-01T05:04:59.616Z,2.70
2022-08-01T05:05:59.596Z,2.70
2022-08-01T05:06:59.583Z,2.90
2022-08-01T05:07:59.554Z,2.50
2022-08-01T05:08:59.555Z,3.10
2022-08-01T05:09:59.526Z,3.00
2022-08-01T05:10:59.525Z,2.50
2022-08-01T05:11:59.515Z,2.60
2022-08-01T05:12:59.533Z,2.80
2022-08-01T05:13:59.494Z,3.10
2022-08-01T05:14:59.484Z,2.70
2022-08-01T05:15:59.458Z,2.60
2022-08-01T05:16:59.445Z,2.60
2022-08-01T05:17:59.440Z,2.50
2022-08-01T05:19:00.440Z,2.60
2022-08-01T05:19:59.416Z,3.10
2022-08-01T05:20:59.386Z,2.50
2022-08-01T05:22:00.187Z,2.80
2022-08-01T05:22:59.364Z,2.70
2022-08-01T05:23:59.380Z,2.90
2022-08-01T05:24:59.352Z,2.50
2022-08-01T05:25:59.328Z,2.10
2022-08-01T05:26:59.307Z,2.40
2022-08-01T05:27:59.302Z,2.40
2022-08-01T05:28:59.292Z,2.90
2022-08-01T05:29:59.288Z,2.40
2022-08-01T05:30:59.271Z,2.60
2022-08-01T05:31:59.239Z,2.70
2022-08-01T05:32:59.238Z,2.70
2022-08-01T05:33:59.220Z,2.30
2022-08-01T05:34:59.240Z,2.30
2022-08-01T05:35:59.211Z,3.10
2022-08-01T05:36:59.199Z,2.40
2022-08-01T05:37:59.162Z,2.40
2022-08-01T05:38:59.150Z,2.60
2022-08-01T05:39:59.150Z,2.20
2022-08-01T05:40:59.131Z,2.70
2022-08-01T05:41:59.122Z,2.50
2022-08-01T05:42:59.112Z,2.80
2022-08-01T05:43:59.082Z,2.90
2022-08-01T05:44:59.092Z,2.50
2022-08-01T05:45:59.060Z,2.10
2022-08-01T05:46:59.041Z,2.40
2022-08-01T05:47:59.048Z,2.20
2022-08-01T05:48:59.053Z,2.60
2022-08-01T05:49:59.026Z,2.70
2022-08-01T05:50:59.095Z,2.30
2022-08-01T05:51:58.983Z,2.10
2022-08-01T05:52:58.979Z,2.20
2022-08-01T05:53:58.957Z,2.40
2022-08-01T05:54:58.966Z,2.30
2022-08-01T05:55:58.926Z,2.60
2022-08-01T05:56:58.935Z,2.10
2022-08-01T05:57:58.902Z,2.30
2022-08-01T05:58:58.897Z,2.60
2022-08-01T05:59:58.901Z,2.00
2022-08-01T06:00:58.886Z,2.40
2022-08-01T06:01:58.905Z,2.30
2022-08-01T06:02:58.847Z,1.90
2022-08-01T06:03:58.831Z,1.70
2022-08-01T06:04:58.829Z,1.70
2022-08-01T06:05:58.809Z,1.80
2022-08-01T06:06:58.812Z,1.60
2022-08-01T06:07:58.787Z,1.80
2022-08-01T06:08:58.783Z,1.60
2022-08-01T06:09:58.773Z,1.50
2022-08-01T06:10:58.750Z,1.70
2022-08-01T06:11:58.756Z,1.60
2022-08-01T06:12:58.719Z,1.60
2022-08-01T06:13:58.714Z,1.50
2022-08-01T06:14:58.719Z,2.30
2022-08-01T06:15:58.687Z,1.50
2022-08-01T06:16:58.670Z,1.50
2022-08-01T06:17:58.663Z,1.60
2022-08-01T06:18:58.648Z,1.30
2022-08-01T06:19:58.643Z,1.60
2022-08-01T06:20:58.631Z,1.50
2022-08-01T06:21:58.603Z,1.80
2022-08-01T06:22:59.905Z,1.50
2022-08-01T06:23:58.574Z,1.40
2022-08-01T06:24:59.635Z,1.60
2022-08-01T06:25:58.560Z,1.40
2022-08-01T06:26:58.547Z,1.70
2022-08-01T06:27:58.520Z,1.10
2022-08-01T06:28:58.521Z,1.80
2022-08-01T06:29:58.506Z,2.00
2022-08-01T06:30:58.508Z,1.50
2022-08-01T06:31:58.468Z,1.60
2022-08-01T06:32:58.464Z,1.50
2022-08-01T06:33:58.441Z,1.60
2022-08-01T06:34:58.433Z,1.40
2022-08-01T06:35:58.434Z,1.70
2022-08-01T06:36:58.406Z,1.70
2022-08-01T06:37:58.385Z,1.70
2022-08-01T06:38:58.386Z,1.80
2022-08-01T06:39:58.366Z,1.30
2022-08-01T06:40:58.355Z,1.60
2022-08-01T06:41:58.334Z,1.30
2022-08-01T06:42:58.326Z,1.40
2022-08-01T06:43:58.307Z,1.70
2022-08-01T06:44:58.313Z,1.60
2022-08-01T06:45:58.294Z,1.30
2022-08-01T06:46:58.268Z,1.40
2022-08-01T06:47:58.263Z,1.50
2022-08-01T06:48:58.291Z,1.10
2022-08-01T06:49:58.231Z,1.40
2022-08-01T06:50:58.228Z,1.00
2022-08-01T06:51:58.199Z,1.60
2022-08-01T06:52:58.189Z,1.50
2022-08-01T06:53:58.178Z,1.30
2022-08-01T06:54:58.173Z,1.40
2022-08-01T06:55:58.160Z,1.50
2022-08-01T06:56:58.139Z,1.50
2022-08-01T06:57:58.119Z,1.70
2022-08-01T06:58:58.111Z,1.50
2022-08-01T06:59:58.102Z,1.50
2022-08-01T07:00:58.143Z,1.30
2022-08-01T07:01:58.071Z,1.20
2022-08-01T07:02:58.044Z,1.30
2022-08-01T07:03:58.042Z,1.40
2022-08-01T07:04:58.034Z,1.40
2022-08-01T07:05:58.031Z,1.10
2022-08-01T07:06:58.034Z,1.10
2022-08-01T07:07:57.973Z,1.20
2022-08-01T07:09:00.323Z,1.30
2022-08-01T07:09:58.942Z,1.30
2022-08-01T07:10:57.951Z,1.50
2022-08-01T07:11:57.930Z,1.10
2022-08-01T07:12:57.903Z,1.40
2022-08-01T07:13:57.905Z,1.10
2022-08-01T07:14:57.916Z,1.80
2022-08-01T07:15:57.903Z,1.20
2022-08-01T07:16:57.855Z,1.20
2022-08-01T07:17:57.835Z,1.20
2022-08-01T07:18:57.838Z,1.90
2022-08-01T07:19:58.823Z,1.40
2022-08-01T07:20:57.838Z,1.10
2022-08-01T07:21:57.793Z,1.10
2022-08-01T07:22:57.795Z,1.20
2022-08-01T07:23:57.768Z,1.40
2022-08-01T07:24:57.772Z,1.30
2022-08-01T07:26:00.745Z,1.10
2022-08-01T07:26:57.721Z,1.00
2022-08-01T07:27:57.729Z,1.00
2022-08-01T07:28:57.707Z,1.40
2022-08-01T07:29:57.692Z,1.20
2022-08-01T07:30:57.678Z,1.00
2022-08-01T07:31:57.658Z,1.20
2022-08-01T07:32:57.647Z,1.40
2022-08-01T07:33:57.642Z,1.10
2022-08-01T07:34:57.636Z,1.00
2022-08-01T07:35:57.611Z,1.10
2022-08-01T07:36:57.599Z,1.20
2022-08-01T07:37:57.571Z,1.10
2022-08-01T07:38:57.581Z,1.10
2022-08-01T07:39:57.560Z,1.20
2022-08-01T07:40:57.562Z,1.10
2022-08-01T07:42:07.167Z,1.50
2022-08-01T07:42:58.522Z,1.30
2022-08-01T07:44:00.658Z,1.40
2022-08-01T07:44:58.484Z,1.30
2022-08-01T07:45:57.484Z,1.00
2022-08-01T07:46:57.471Z,1.10
2022-08-01T07:47:57.444Z,1.10
2022-08-01T07:48:57.473Z,1.40
2022-08-01T07:49:57.422Z,1.10
2022-08-01T07:50:57.434Z,1.60
2022-08-01T07:52:03.897Z,1.20
2022-08-01T07:52:58.385Z,1.40
2022-08-01T07:53:57.373Z,1.00
2022-08-01T07:54:57.345Z,1.20
2022-08-01T07:55:57.356Z,1.30
2022-08-01T07:56:57.335Z,1.50
2022-08-01T07:57:57.316Z,1.30
2022-08-01T07:58:57.316Z,1.30
2022-08-01T07:59:58.273Z,1.20
2022-08-01T08:00:57.296Z,1.30
2022-08-01T08:01:57.372Z,1.30
2022-08-01T08:02:57.246Z,1.20
2022-08-01T08:03:57.251Z,1.30
2022-08-01T08:04:57.227Z,1.10
2022-08-01T08:05:59.975Z,1.20
2022-08-01T08:06:57.209Z,1.40
2022-08-01T08:07:57.187Z,1.40
2022-08-01T08:08:57.167Z,1.20
2022-08-01T08:09:57.170Z,1.40
2022-08-01T08:10:57.140Z,1.20
2022-08-01T08:11:57.130Z,1.50
2022-08-01T08:12:57.120Z,1.30
2022-08-01T08:13:57.120Z,1.50
2022-08-01T08:14:57.548Z,1.30
2022-08-01T08:15:57.080Z,1.40
2022-08-01T08:16:57.086Z,1.20
2022-08-01T08:17:57.060Z,1.20
2022-08-01T08:18:57.043Z,1.10
2022-08-01T08:19:57.062Z,0.90
2022-08-01T08:20:57.035Z,1.20
2022-08-01T08:21:57.013Z,1.00
2022-08-01T08:22:56.991Z,1.20
2022-08-01T08:23:56.984Z,1.20
2022-08-01T08:24:56.982Z,1.10
2022-08-01T08:25:56.986Z,1.40
2022-08-01T08:26:56.980Z,1.10
2022-08-01T08:27:56.936Z,1.00
2022-08-01T08:28:56.913Z,1.40
2022-08-01T08:29:56.944Z,1.30
2022-08-01T08:30:56.910Z,1.10
2022-08-01T08:31:57.085Z,1.10
2022-08-01T08:32:56.857Z,1.00
2022-08-01T08:33:56.870Z,1.20
2022-08-01T08:34:56.850Z,1.00
2022-08-01T08:35:56.858Z,1.00
2022-08-01T08:36:56.807Z,1.10
2022-08-01T08:37:58.223Z,1.30
2022-08-01T08:38:56.781Z,1.00
2022-08-01T08:39:56.787Z,1.50
2022-08-01T08:40:56.779Z,1.10
2022-08-01T08:41:56.759Z,1.30
2022-08-01T08:42:56.759Z,1.00
2022-08-01T08:43:56.718Z,1.20
2022-08-01T08:44:56.717Z,1.10
2022-08-01T08:45:59.389Z,1.10
2022-08-01T08:46:56.679Z,0.90
2022-08-01T08:47:56.699Z,1.10
2022-08-01T08:48:56.741Z,0.90
2022-08-01T08:49:56.671Z,0.80
2022-08-01T08:50:56.639Z,1.10
2022-08-01T08:51:56.611Z,0.90
2022-08-01T08:52:56.621Z,0.90
2022-08-01T08:53:56.599Z,1.30
2022-08-01T08:54:56.596Z,1.00
2022-08-01T08:55:56.808Z,1.10
2022-08-01T08:56:56.559Z,1.00
2022-08-01T08:57:56.563Z,0.90
2022-08-01T08:58:56.533Z,1.00
2022-08-01T08:59:56.525Z,1.20
2022-08-01T09:00:56.495Z,1.00
2022-08-01T09:01:56.501Z,0.90
2022-08-01T09:02:56.518Z,1.20
2022-08-01T09:03:56.474Z,1.10
2022-08-01T09:04:56.454Z,0.90
2022-08-01T09:05:56.445Z,0.90
2022-08-01T09:06:56.447Z,1.00
2022-08-01T09:07:56.428Z,1.40
2022-08-01T09:08:56.396Z,0.90
2022-08-01T09:09:56.385Z,1.60
2022-08-01T09:10:56.389Z,1.10
2022-08-01T09:11:57.592Z,1.00
2022-08-01T09:12:56.337Z,1.10
2022-08-01T09:13:56.352Z,0.80
2022-08-01T09:14:56.325Z,0.80
2022-08-01T09:15:56.310Z,1.20
2022-08-01T09:16:56.299Z,1.20
2022-08-01T09:17:56.290Z,1.10
2022-08-01T09:18:56.279Z,0.80
2022-08-01T09:19:57.675Z,1.30
2022-08-01T09:20:56.261Z,1.00
2022-08-01T09:21:56.250Z,1.20
2022-08-01T09:22:56.219Z,1.30
2022-08-01T09:23:56.214Z,0.90
2022-08-01T09:24:56.190Z,0.90
2022-08-01T09:25:56.825Z,0.90
2022-08-01T09:26:56.161Z,1.00
2022-08-01T09:27:56.151Z,0.90
2022-08-01T09:28:56.140Z,1.30
2022-08-01T09:30:01.110Z,1.00
2022-08-01T09:30:57.130Z,1.10
2022-08-01T09:31:56.114Z,2.50
2022-08-01T09:32:56.093Z,0.90
2022-08-01T09:33:56.072Z,1.00
2022-08-01T09:34:56.052Z,0.70
2022-08-01T09:35:56.063Z,0.70
2022-08-01T09:36:56.016Z,0.80
2022-08-01T09:37:56.023Z,1.10
2022-08-01T09:38:56.008Z,0.80
2022-08-01T09:39:55.995Z,0.70
2022-08-01T09:40:58.382Z,0.90
2022-08-01T09:41:56.469Z,0.90
2022-08-01T09:42:55.957Z,0.90
2022-08-01T09:43:55.935Z,0.90
2022-08-01T09:44:55.907Z,0.80
2022-08-01T09:45:57.793Z,0.80
2022-08-01T09:46:55.884Z,0.70
2022-08-01T10:03:22.115Z,1.00
2022-08-01T10:04:22.014Z,1.00
2022-08-01T10:05:22.012Z,0.80
2022-08-01T10:06:24.876Z,1.00
2022-08-01T10:07:21.984Z,1.10
2022-08-01T10:08:23.398Z,0.70
2022-08-01T10:09:21.955Z,0.70
2022-08-01T10:10:21.943Z,0.80
2022-08-01T10:11:22.924Z,0.70
2022-08-01T10:12:22.911Z,0.90
2022-08-01T10:13:21.904Z,0.60
2022-08-01T10:14:21.899Z,0.70
2022-08-01T10:15:21.885Z,0.80
2022-08-01T10:16:22.852Z,0.70
2022-08-01T10:17:22.747Z,0.70
2022-08-01T10:18:26.136Z,0.90
2022-08-01T10:19:21.816Z,1.10
2022-08-01T10:20:31.018Z,1.00
2022-08-01T10:21:56.753Z,0.60
2022-08-01T10:22:22.939Z,0.80
2022-08-01T10:23:21.767Z,0.70
2022-08-01T10:24:21.758Z,0.80
2022-08-01T10:25:42.541Z,0.80
2022-08-01T10:26:22.731Z,0.80
2022-08-01T10:27:35.719Z,0.70
2022-08-01T10:28:24.271Z,1.10
2022-08-01T10:29:45.327Z,0.60
2022-08-01T10:30:23.655Z,0.60
2022-08-01T10:31:30.552Z,0.50
2022-08-01T10:32:22.651Z,0.80
2022-08-01T10:33:50.611Z,0.60
2022-08-01T10:34:23.095Z,0.60
2022-08-01T10:35:47.127Z,0.70
2022-08-01T10:36:22.901Z,0.80
2022-08-01T10:37:21.595Z,0.70
2022-08-01T10:38:21.583Z,0.70
2022-08-01T10:39:21.573Z,0.90
2022-08-01T10:40:36.969Z,0.50
2022-08-01T10:41:22.535Z,0.50
2022-08-01T10:42:21.531Z,0.60
2022-08-01T10:43:22.340Z,0.50
2022-08-01T10:44:21.503Z,0.70
2022-08-01T10:45:21.517Z,0.80
2022-08-01T10:46:21.485Z,0.80
2022-08-01T10:47:26.271Z,0.50
2022-08-01T10:48:22.447Z,0.80
2022-08-01T10:49:21.488Z,0.60
2022-08-01T10:50:21.865Z,0.50
2022-08-01T10:51:21.453Z,0.50
2022-08-01T10:52:21.398Z,0.60
2022-08-01T10:53:24.287Z,0.50
2022-08-01T10:54:22.387Z,0.80
2022-08-01T10:55:21.358Z,0.60
2022-08-01T10:56:21.354Z,0.90
2022-08-01T10:57:23.180Z,1.10
2022-08-01T10:58:22.322Z,0.70
2022-08-01T10:59:49.097Z,0.90
2022-08-01T11:00:22.301Z,0.80
2022-08-01T11:01:21.390Z,0.60
2022-08-01T11:02:21.273Z,0.70
2022-08-01T11:03:35.901Z,1.10
2022-08-01T11:04:22.249Z,0.60
2022-08-01T11:05:21.230Z,1.40
2022-08-01T11:06:21.222Z,1.30
2022-08-01T11:07:21.212Z,0.60
2022-08-01T11:08:21.182Z,0.50
2022-08-01T11:09:21.197Z,1.00
2022-08-01T11:10:24.290Z,0.70
2022-08-01T11:11:21.162Z,0.60
2022-08-01T11:12:23.445Z,0.50
2022-08-01T11:13:21.132Z,0.60
2022-08-01T11:14:26.381Z,0.60
2022-08-01T11:15:29.194Z,0.90
2022-08-01T11:16:24.340Z,0.70
2022-08-01T11:17:21.081Z,0.70
2022-08-01T11:18:21.076Z,0.60
2022-08-01T11:19:22.046Z,1.00
2022-08-01T11:20:21.049Z,0.60
2022-08-01T11:21:56.897Z,0.50
2022-08-01T11:22:25.434Z,0.70
2022-08-01T11:23:21.656Z,0.60
2022-08-01T11:24:21.007Z,0.60
2022-08-01T11:25:20.989Z,0.70
2022-08-01T11:26:29.070Z,0.70
2022-08-01T11:27:23.585Z,0.70
2022-08-01T11:28:28.900Z,0.70
2022-08-01T11:29:22.776Z,0.90
2022-08-01T11:30:21.375Z,0.60
2022-08-01T11:31:20.909Z,0.50
2022-08-01T11:32:20.922Z,0.50
2022-08-01T11:33:20.904Z,0.60
2022-08-01T11:34:20.872Z,0.40
2022-08-01T11:35:20.857Z,0.60
2022-08-01T11:36:36.966Z,0.50
2022-08-01T11:37:21.853Z,0.60
2022-08-01T11:38:20.829Z,0.80
2022-08-01T11:39:20.812Z,0.50
2022-08-01T11:40:22.828Z,0.70
2022-08-01T11:41:20.792Z,0.70
2022-08-01T11:42:21.827Z,0.80
2022-08-01T11:43:20.773Z,0.50
2022-08-01T11:44:21.151Z,0.40
2022-08-01T11:45:20.733Z,0.50
2022-08-01T11:46:20.736Z,0.50
2022-08-01T11:47:21.249Z,0.50
2022-08-01T11:48:20.714Z,0.50
2022-08-01T11:49:20.762Z,0.70
2022-08-01T11:50:20.685Z,0.50
2022-08-01T11:51:25.680Z,0.60
2022-08-01T11:52:21.664Z,0.50
2022-08-01T11:53:22.069Z,0.40
2022-08-01T11:54:35.097Z,0.50
2022-08-01T11:55:21.616Z,0.60
2022-08-01T11:56:20.607Z,0.50
2022-08-01T11:57:22.939Z,0.40
2022-08-01T11:58:22.063Z,0.50
2022-08-01T11:59:21.578Z,0.50
2022-08-01T12:00:20.557Z,0.60
2022-08-01T12:01:20.538Z,0.50
2022-08-01T12:02:30.774Z,0.50
2022-08-01T12:03:31.597Z,0.60
2022-08-01T12:04:21.521Z,0.50
2022-08-01T12:05:20.500Z,1.20
2022-08-01T12:06:20.491Z,0.60
2022-08-01T12:07:20.481Z,0.50
2022-08-01T12:08:20.471Z,0.40
2022-08-01T12:09:20.450Z,0.40
2022-08-01T12:10:20.442Z,0.40
2022-08-01T12:11:20.432Z,0.60
2022-08-01T12:12:20.425Z,0.50
2022-08-01T12:13:20.402Z,0.80
2022-08-01T12:14:20.399Z,0.60
2022-08-01T12:15:20.385Z,0.60
2022-08-01T12:16:20.363Z,0.60
2022-08-01T12:17:20.346Z,0.60
2022-08-01T12:18:20.351Z,0.60
2022-08-01T12:19:20.324Z,0.60
2022-08-01T12:20:20.317Z,0.60
2022-08-01T12:21:20.326Z,0.50
2022-08-01T12:22:20.295Z,0.60
2022-08-01T12:23:20.284Z,0.60
2022-08-01T12:24:20.286Z,0.60
2022-08-01T12:25:20.256Z,0.70
2022-08-01T12:26:28.433Z,0.60
2022-08-01T12:27:21.228Z,0.90
2022-08-01T12:28:20.222Z,0.80
2022-08-01T12:29:20.208Z,0.90
2022-08-01T12:30:20.192Z,0.80
2022-08-01T12:31:20.174Z,0.60
2022-08-01T12:32:28.028Z,0.60
2022-08-01T12:33:21.158Z,0.80
2022-08-01T12:34:20.149Z,0.50
2022-08-01T12:35:20.129Z,0.70
2022-08-01T12:36:20.116Z,0.80
2022-08-01T12:37:20.092Z,0.60
2022-08-01T12:38:20.128Z,0.50
2022-08-01T12:39:20.079Z,0.60
2022-08-01T12:40:20.072Z,0.50
2022-08-01T12:41:20.040Z,0.60
2022-08-01T12:42:20.042Z,0.60
2022-08-01T12:43:27.960Z,0.60
2022-08-01T12:44:21.023Z,0.40
2022-08-01T12:45:20.008Z,0.50
2022-08-01T12:46:19.984Z,0.60
2022-08-01T12:47:19.971Z,0.60
2022-08-01T12:48:19.964Z,0.70
2022-08-01T12:49:19.991Z,0.80
2022-08-01T12:50:19.938Z,0.80
2022-08-01T12:51:19.913Z,0.70
2022-08-01T12:52:19.905Z,0.60
2022-08-01T12:53:19.911Z,0.60
2022-08-01T12:54:19.877Z,0.70
2022-08-01T12:55:19.867Z,0.80
2022-08-01T12:56:19.845Z,0.70
2022-08-01T12:57:19.837Z,0.50
2022-08-01T12:58:19.839Z,0.80
2022-08-01T12:59:19.803Z,0.40
2022-08-01T13:00:19.824Z,0.60
2022-08-01T13:01:19.848Z,0.70
2022-08-01T13:02:19.785Z,0.60
2022-08-01T13:03:19.778Z,0.50
2022-08-01T13:04:19.757Z,0.90
2022-08-01T13:05:19.750Z,0.50
2022-08-01T13:06:19.740Z,0.60
2022-08-01T13:07:19.718Z,0.70
2022-08-01T13:08:19.721Z,0.40
2022-08-01T13:09:19.700Z,0.70
2022-08-01T13:10:19.691Z,0.50
2022-08-01T13:11:19.673Z,0.60
2022-08-01T13:12:19.652Z,0.60
2022-08-01T13:13:27.770Z,0.50
2022-08-01T13:14:22.288Z,0.50
2022-08-01T13:15:19.624Z,0.50
2022-08-01T13:16:31.162Z,0.50
2022-08-01T13:17:20.592Z,0.50
2022-08-01T13:18:19.613Z,0.50
2022-08-01T13:19:19.564Z,0.60
2022-08-01T13:20:19.553Z,0.60
2022-08-01T13:21:19.559Z,0.60
2022-08-01T13:22:19.530Z,0.70
2022-08-01T13:24:01.693Z,0.70
2022-08-01T13:24:20.524Z,0.60
2022-08-01T13:25:22.701Z,0.50
2022-08-01T13:26:19.476Z,0.60
2022-08-01T13:27:19.472Z,0.70
2022-08-01T13:28:19.456Z,0.50
2022-08-01T13:29:19.447Z,0.50
2022-08-01T13:30:19.438Z,0.70
2022-08-01T13:31:19.417Z,0.70
2022-08-01T13:32:28.587Z,0.50
2022-08-01T13:33:20.389Z,0.80
2022-08-01T13:34:19.413Z,0.60
2022-08-01T13:35:19.374Z,0.60
2022-08-01T13:36:19.359Z,0.70
2022-08-01T13:37:20.340Z,0.70
2022-08-01T13:38:19.330Z,0.60
2022-08-01T13:39:19.330Z,0.50
2022-08-01T13:40:19.301Z,0.40
2022-08-01T13:41:19.303Z,0.80
2022-08-01T13:42:19.629Z,0.70
2022-08-01T13:43:19.333Z,0.80
2022-08-01T13:44:19.284Z,0.50
2022-08-01T13:45:22.439Z,0.70
2022-08-01T13:46:19.250Z,0.70